createdAt,value
2019-04-30T00:00:34.748Z,26.75
2019-04-30T00:03:18.495Z,27.65
2019-04-30T00:05:49.301Z,30.57
2019-04-30T00:08:18.598Z,29.75
2019-04-30T00:10:48.571Z,28.23
2019-04-30T00:13:20.965Z,24.00
2019-04-30T00:15:52.717Z,26.37
2019-04-30T00:18:25.632Z,27.15
2019-04-30T00:20:55.635Z,27.40
2019-04-30T00:23:30.711Z,22.10
2019-04-30T00:26:05.055Z,26.68
2019-04-30T00:28:30.266Z,29.48
2019-04-30T00:31:00.235Z,28.60
2019-04-30T00:33:30.405Z,25.35
2019-04-30T00:36:00.370Z,28.62
2019-04-30T00:38:34.348Z,27.70
2019-04-30T00:41:06.138Z,27.02
2019-04-30T00:43:35.349Z,27.15
2019-04-30T00:46:06.414Z,27.37
2019-04-30T00:48:37.604Z,26.42
2019-04-30T00:51:14.094Z,25.92
2019-04-30T00:53:39.315Z,24.05
2019-04-30T00:56:09.350Z,29.98
2019-04-30T00:58:39.348Z,23.95
2019-04-30T01:01:16.835Z,29.05
2019-04-30T01:03:49.613Z,26.97
2019-04-30T01:06:24.653Z,26.40
2019-04-30T01:08:51.412Z,28.90
2019-04-30T01:11:21.392Z,25.27
2019-04-30T01:13:53.960Z,24.02
2019-04-30T01:16:30.203Z,23.22
2019-04-30T01:18:55.982Z,25.00
2019-04-30T01:21:28.549Z,28.80
2019-04-30T01:23:59.130Z,22.55
2019-04-30T01:26:31.129Z,26.25
2019-04-30T01:29:02.251Z,26.27
2019-04-30T01:31:37.431Z,27.85
2019-04-30T01:34:05.025Z,20.60
2019-04-30T01:36:35.738Z,24.45
2019-04-30T01:39:06.191Z,23.80
2019-04-30T01:41:36.226Z,23.90
2019-04-30T01:44:08.672Z,21.87
2019-04-30T01:46:39.121Z,20.10
2019-04-30T01:49:09.285Z,21.35
2019-04-30T01:51:39.204Z,18.35
2019-04-30T01:54:09.274Z,20.77
2019-04-30T01:56:56.263Z,24.37
2019-04-30T01:59:29.133Z,20.57
2019-04-30T02:01:59.300Z,25.25
2019-04-30T02:04:31.405Z,22.10
2019-04-30T02:07:00.561Z,22.45
2019-04-30T02:09:30.704Z,21.62
2019-04-30T02:12:00.723Z,21.55
2019-04-30T02:14:31.621Z,20.00
2019-04-30T02:17:01.558Z,18.00
2019-04-30T02:19:31.306Z,21.30
2019-04-30T02:22:01.185Z,20.82
2019-04-30T02:24:30.891Z,20.25
2019-04-30T02:27:00.537Z,17.00
2019-04-30T02:29:30.516Z,20.92
2019-04-30T02:32:00.703Z,19.90
2019-04-30T02:34:35.199Z,20.90
2019-04-30T02:37:12.341Z,19.27
2019-04-30T02:39:42.367Z,18.87
2019-04-30T02:42:13.584Z,19.80
2019-04-30T02:44:44.408Z,18.67
2019-04-30T02:47:14.321Z,22.62
2019-04-30T02:49:44.724Z,17.77
2019-04-30T02:52:16.102Z,16.85
2019-04-30T02:54:49.902Z,18.27
2019-04-30T02:57:22.912Z,17.27
2019-04-30T03:00:11.223Z,17.80
2019-04-30T03:02:40.948Z,15.98
2019-04-30T03:05:13.589Z,19.52
2019-04-30T03:07:45.962Z,19.27
2019-04-30T03:10:15.575Z,19.75
2019-04-30T03:12:45.107Z,17.12
2019-04-30T03:15:15.964Z,19.67
2019-04-30T03:17:53.728Z,21.70
2019-04-30T03:20:35.407Z,17.85
2019-04-30T03:23:02.338Z,24.18
2019-04-30T03:25:30.577Z,20.55
2019-04-30T03:28:00.574Z,23.02
2019-04-30T03:30:31.968Z,20.52
2019-04-30T03:33:03.068Z,26.48
2019-04-30T03:35:33.001Z,25.17
2019-04-30T03:38:02.973Z,27.27
2019-04-30T03:40:32.655Z,32.00
2019-04-30T03:43:03.381Z,42.38
2019-04-30T03:45:33.998Z,44.33
2019-04-30T03:48:03.541Z,41.80
2019-04-30T03:50:49.338Z,45.00
2019-04-30T03:53:05.193Z,43.33
2019-04-30T03:55:35.442Z,43.55
2019-04-30T03:58:05.207Z,48.87
2019-04-30T04:00:42.153Z,45.73
2019-04-30T04:03:10.806Z,48.17
2019-04-30T04:05:51.764Z,47.85
2019-04-30T04:08:29.524Z,45.48
2019-04-30T04:11:10.000Z,48.60
2019-04-30T04:13:40.032Z,46.83
2019-04-30T04:16:11.103Z,64.40
2019-04-30T04:18:41.059Z,53.73
2019-04-30T04:21:16.415Z,49.80
2019-04-30T04:23:42.968Z,52.35
2019-04-30T04:26:12.729Z,53.05
2019-04-30T04:28:43.512Z,54.10
2019-04-30T04:31:13.654Z,54.35
2019-04-30T04:33:43.306Z,57.10
2019-04-30T04:36:12.913Z,46.95
2019-04-30T04:38:42.973Z,46.77
2019-04-30T04:41:13.093Z,46.25
2019-04-30T04:43:43.198Z,48.45
2019-04-30T04:46:13.920Z,49.30
2019-04-30T04:48:43.694Z,44.42
2019-04-30T04:51:27.732Z,46.13
2019-04-30T04:53:45.361Z,44.20
2019-04-30T04:56:15.374Z,32.53
2019-04-30T04:58:45.357Z,35.92
2019-04-30T05:01:15.143Z,40.60
2019-04-30T05:03:44.663Z,34.50
2019-04-30T05:06:14.516Z,32.35
2019-04-30T05:08:44.494Z,34.35
2019-04-30T05:11:14.514Z,33.67
2019-04-30T05:13:45.508Z,28.73
2019-04-30T05:16:19.004Z,33.02
2019-04-30T05:18:49.287Z,29.60
2019-04-30T05:21:19.249Z,26.17
2019-04-30T05:23:49.982Z,26.52
2019-04-30T05:26:19.908Z,27.82
2019-04-30T05:28:52.783Z,26.62
2019-04-30T05:31:21.517Z,23.87
2019-04-30T05:33:51.558Z,22.22
2019-04-30T05:36:21.650Z,18.12
2019-04-30T05:38:51.403Z,19.85
2019-04-30T05:41:20.954Z,14.15
2019-04-30T05:43:50.839Z,15.65
2019-04-30T05:46:20.519Z,17.92
2019-04-30T05:48:50.562Z,16.10
2019-04-30T05:51:21.315Z,16.12
2019-04-30T05:53:51.407Z,19.52
2019-04-30T05:56:21.573Z,14.00
2019-04-30T05:58:51.843Z,13.10
2019-04-30T06:01:24.199Z,14.00
2019-04-30T06:03:54.314Z,14.28
2019-04-30T06:06:24.368Z,14.58
2019-04-30T06:09:06.509Z,13.35
2019-04-30T06:11:49.165Z,10.23
2019-04-30T06:14:28.526Z,10.95
2019-04-30T06:17:10.024Z,9.70
2019-04-30T06:19:39.866Z,9.73
2019-04-30T06:22:11.259Z,13.10
2019-04-30T06:24:41.599Z,12.65
2019-04-30T06:27:11.999Z,12.05
2019-04-30T06:29:42.403Z,16.97
2019-04-30T06:32:12.030Z,13.43
2019-04-30T06:34:42.562Z,15.15
2019-04-30T06:37:12.290Z,14.75
2019-04-30T06:39:42.147Z,13.05
2019-04-30T06:42:12.939Z,13.75
2019-04-30T06:44:42.842Z,14.93
2019-04-30T06:47:13.367Z,15.15
2019-04-30T06:49:43.347Z,17.00
2019-04-30T06:52:20.609Z,16.30
2019-04-30T06:54:44.998Z,16.80
2019-04-30T06:57:14.670Z,18.20
2019-04-30T06:59:44.263Z,19.80
2019-04-30T07:02:14.499Z,17.70
2019-04-30T07:04:44.606Z,19.80
2019-04-30T07:07:19.253Z,19.82
2019-04-30T07:09:52.592Z,20.57
2019-04-30T07:12:27.871Z,20.92
2019-04-30T07:14:56.350Z,21.85
2019-04-30T07:17:29.086Z,21.33
2019-04-30T07:19:59.685Z,25.43
2019-04-30T07:22:39.588Z,21.82
2019-04-30T07:25:01.586Z,23.20
2019-04-30T07:27:32.477Z,25.12
2019-04-30T07:30:02.304Z,26.93
2019-04-30T07:32:32.259Z,29.27
2019-04-30T07:35:02.887Z,23.90
2019-04-30T07:37:32.799Z,25.97
2019-04-30T07:40:03.024Z,24.27
2019-04-30T07:42:36.989Z,23.32
2019-04-30T07:45:06.654Z,24.57
2019-04-30T07:47:36.651Z,24.02
2019-04-30T07:50:10.348Z,22.70
2019-04-30T07:52:58.161Z,16.07
2019-04-30T07:55:11.226Z,14.75
2019-04-30T07:57:41.312Z,18.05
2019-04-30T08:00:11.703Z,16.37
2019-04-30T08:02:43.817Z,17.12
2019-04-30T08:05:15.466Z,16.50
2019-04-30T08:07:45.445Z,18.42
2019-04-30T08:10:16.143Z,21.20
2019-04-30T08:12:46.786Z,18.23
2019-04-30T08:15:19.636Z,18.15
2019-04-30T08:18:01.872Z,19.70
2019-04-30T08:20:21.874Z,18.82
2019-04-30T08:22:51.903Z,18.17
2019-04-30T08:25:22.106Z,19.45
2019-04-30T08:27:52.150Z,17.10
2019-04-30T08:30:26.766Z,16.05
2019-04-30T08:32:54.013Z,18.60
2019-04-30T08:35:24.050Z,20.25
2019-04-30T08:37:54.011Z,17.62
2019-04-30T08:40:24.027Z,20.30
2019-04-30T08:42:54.052Z,20.05
2019-04-30T08:45:24.052Z,19.98
2019-04-30T08:47:54.132Z,21.05
2019-04-30T08:50:24.369Z,19.87
2019-04-30T08:52:54.626Z,19.70
2019-04-30T08:55:24.702Z,20.57
2019-04-30T08:58:06.581Z,20.25
2019-04-30T09:00:26.451Z,21.33
2019-04-30T09:02:56.411Z,23.57
2019-04-30T09:05:30.477Z,23.73
2019-04-30T09:07:59.901Z,23.05
2019-04-30T09:10:30.296Z,24.82
2019-04-30T09:13:00.352Z,23.85
2019-04-30T09:15:31.321Z,26.95
2019-04-30T09:18:06.338Z,27.37
2019-04-30T09:20:33.867Z,23.90
2019-04-30T09:23:03.919Z,22.82
2019-04-30T09:25:33.924Z,23.27
2019-04-30T09:28:04.532Z,24.25
2019-04-30T09:30:34.632Z,19.75
2019-04-30T09:33:04.664Z,22.73
2019-04-30T09:35:35.114Z,19.42
2019-04-30T09:38:05.063Z,22.02
2019-04-30T09:40:35.023Z,20.10
2019-04-30T09:43:05.052Z,22.55
2019-04-30T09:45:35.136Z,22.50
2019-04-30T09:48:05.236Z,23.85
2019-04-30T09:50:35.618Z,19.27
2019-04-30T09:53:06.084Z,19.92
2019-04-30T09:55:36.200Z,21.15
2019-04-30T09:58:16.673Z,24.10
2019-04-30T10:00:39.276Z,23.90
2019-04-30T10:03:10.765Z,21.00
2019-04-30T10:05:41.079Z,24.32
2019-04-30T10:08:11.075Z,22.52
2019-04-30T10:10:42.683Z,20.10
2019-04-30T10:13:12.652Z,21.00
2019-04-30T10:15:50.236Z,21.33
2019-04-30T10:18:21.271Z,18.32
2019-04-30T10:20:51.346Z,18.20
2019-04-30T10:23:21.308Z,14.78
2019-04-30T10:25:51.243Z,17.80
2019-04-30T10:28:21.897Z,19.87
2019-04-30T10:30:51.962Z,16.48
2019-04-30T10:33:22.013Z,16.23
2019-04-30T10:35:52.072Z,15.32
2019-04-30T10:38:22.047Z,16.50
2019-04-30T10:40:52.017Z,15.58
2019-04-30T10:43:22.233Z,15.43
2019-04-30T10:45:53.159Z,15.38
2019-04-30T10:48:23.246Z,12.85
2019-04-30T10:50:53.755Z,13.93
2019-04-30T10:53:23.771Z,21.00
2019-04-30T10:55:53.985Z,16.37
2019-04-30T10:58:24.023Z,18.27
2019-04-30T11:00:54.183Z,15.13
2019-04-30T11:03:24.259Z,17.60
2019-04-30T11:05:54.215Z,15.65
2019-04-30T11:08:24.185Z,16.60
2019-04-30T11:10:54.257Z,16.62
2019-04-30T11:13:24.202Z,20.25
2019-04-30T11:15:54.217Z,17.25
2019-04-30T11:18:24.491Z,17.62
2019-04-30T11:20:55.966Z,16.85
2019-04-30T11:23:29.351Z,19.42
2019-04-30T11:26:00.135Z,19.37
2019-04-30T11:28:30.939Z,18.07
2019-04-30T11:31:19.336Z,17.52
2019-04-30T11:33:49.840Z,18.98
2019-04-30T11:36:20.942Z,18.05
2019-04-30T11:38:51.067Z,20.02
2019-04-30T11:41:30.231Z,21.30
2019-04-30T11:43:52.783Z,22.13
2019-04-30T11:46:28.821Z,22.32
2019-04-30T11:48:58.888Z,22.30
2019-04-30T11:51:29.500Z,23.92
2019-04-30T11:53:59.698Z,24.67
2019-04-30T11:56:29.818Z,25.32
2019-04-30T11:59:00.196Z,30.80
2019-04-30T12:01:31.807Z,26.17
2019-04-30T12:04:01.959Z,26.95
2019-04-30T12:06:31.906Z,26.27
2019-04-30T12:09:09.236Z,26.82
2019-04-30T12:11:41.390Z,23.12
2019-04-30T12:14:12.602Z,23.57
2019-04-30T12:16:43.794Z,25.02
2019-04-30T12:19:13.810Z,23.95
2019-04-30T12:21:43.565Z,23.62
2019-04-30T12:24:18.179Z,23.83
2019-04-30T12:26:48.866Z,21.30
2019-04-30T12:29:20.140Z,22.58
2019-04-30T12:31:50.090Z,22.90
2019-04-30T12:34:20.075Z,26.70
2019-04-30T12:36:50.051Z,25.20
2019-04-30T12:39:20.119Z,25.08
2019-04-30T12:41:50.052Z,22.55
2019-04-30T12:44:20.036Z,26.30
2019-04-30T12:46:50.020Z,27.07
2019-04-30T12:49:19.967Z,24.92
2019-04-30T12:51:51.625Z,25.15
2019-04-30T12:54:25.781Z,25.65
2019-04-30T12:57:03.672Z,26.65
2019-04-30T12:59:34.466Z,22.75
2019-04-30T13:02:04.615Z,24.90
2019-04-30T13:04:34.558Z,24.63
2019-04-30T13:07:05.280Z,19.48
2019-04-30T13:09:36.296Z,19.17
2019-04-30T13:12:07.804Z,21.70
2019-04-30T13:14:51.069Z,20.00
2019-04-30T13:17:10.049Z,19.12
2019-04-30T13:19:40.174Z,21.68
2019-04-30T13:22:11.337Z,19.10
2019-04-30T13:24:41.588Z,18.23
2019-04-30T13:27:11.767Z,23.07
2019-04-30T13:29:58.401Z,16.27
2019-04-30T13:32:32.825Z,19.55
2019-04-30T13:35:02.332Z,17.48
2019-04-30T13:37:36.685Z,16.95
2019-04-30T13:40:11.733Z,20.10
2019-04-30T13:42:43.388Z,20.88
2019-04-30T13:45:14.377Z,16.65
2019-04-30T13:47:44.415Z,17.85
2019-04-30T13:50:15.592Z,21.15
2019-04-30T13:52:45.705Z,20.23
2019-04-30T13:55:15.769Z,17.40
2019-04-30T13:57:45.788Z,19.10
2019-04-30T14:00:21.312Z,18.40
2019-04-30T14:02:53.037Z,15.40
2019-04-30T14:05:23.068Z,17.17
2019-04-30T14:08:00.881Z,16.62
2019-04-30T14:10:32.639Z,20.05
2019-04-30T14:13:03.744Z,17.67
2019-04-30T14:15:33.790Z,15.55
2019-04-30T14:18:09.227Z,18.32
2019-04-30T14:20:38.830Z,17.87
2019-04-30T14:23:10.753Z,16.75
2019-04-30T14:25:40.538Z,16.20
2019-04-30T14:28:10.495Z,14.47
2019-04-30T14:30:40.855Z,17.25
2019-04-30T14:33:22.728Z,14.35
2019-04-30T14:35:42.590Z,17.05
2019-04-30T14:38:12.610Z,12.58
2019-04-30T14:40:43.089Z,12.15
2019-04-30T14:43:19.934Z,13.45
2019-04-30T14:46:10.136Z,17.92
2019-04-30T14:48:50.370Z,16.60
2019-04-30T14:51:19.295Z,13.10
2019-04-30T14:53:53.846Z,15.40
2019-04-30T14:56:29.505Z,14.58
2019-04-30T14:59:18.750Z,16.80
2019-04-30T15:01:51.735Z,11.30
2019-04-30T15:04:21.799Z,12.03
2019-04-30T15:06:51.962Z,9.98
2019-04-30T15:09:22.356Z,9.93
2019-04-30T15:11:52.306Z,11.40
2019-04-30T15:14:22.263Z,11.35
2019-04-30T15:16:55.296Z,10.32
2019-04-30T15:19:25.274Z,12.13
2019-04-30T15:21:55.306Z,9.68
2019-04-30T15:24:30.936Z,8.28
2019-04-30T15:27:00.942Z,10.80
2019-04-30T15:29:30.879Z,9.45
2019-04-30T15:32:00.835Z,12.13
2019-04-30T15:34:30.762Z,7.12
2019-04-30T15:37:00.802Z,11.68
2019-04-30T15:39:32.375Z,11.38
2019-04-30T15:42:02.390Z,12.30
2019-04-30T15:44:39.899Z,12.80
2019-04-30T15:47:05.509Z,11.48
2019-04-30T15:49:35.494Z,11.35
2019-04-30T15:52:05.667Z,13.58
2019-04-30T15:54:35.704Z,16.40
2019-04-30T15:57:08.739Z,17.32
2019-04-30T15:59:40.955Z,18.07
2019-04-30T16:02:24.826Z,20.17
2019-04-30T16:04:56.818Z,16.77
2019-04-30T16:07:26.806Z,17.90
2019-04-30T16:10:13.446Z,21.17
2019-04-30T16:13:00.365Z,23.90
2019-04-30T16:15:30.337Z,20.08
2019-04-30T16:18:01.910Z,21.77
2019-04-30T16:20:31.869Z,27.07
2019-04-30T16:23:01.819Z,20.32
2019-04-30T16:25:32.693Z,25.57
2019-04-30T16:28:02.655Z,24.75
2019-04-30T16:30:32.920Z,24.55
2019-04-30T16:33:03.135Z,26.80
2019-04-30T16:35:33.161Z,30.05
2019-04-30T16:38:03.245Z,36.15
2019-04-30T16:40:33.468Z,32.73
2019-04-30T16:43:03.435Z,38.28
2019-04-30T16:45:34.871Z,34.18
2019-04-30T16:48:04.841Z,41.58
2019-04-30T16:50:34.872Z,38.65
2019-04-30T16:53:04.908Z,40.90
2019-04-30T16:55:34.998Z,38.55
2019-04-30T16:58:05.015Z,35.13
2019-04-30T17:00:35.415Z,36.63
2019-04-30T17:03:09.984Z,35.40
2019-04-30T17:05:50.998Z,43.17
2019-04-30T17:08:29.095Z,40.55
2019-04-30T17:11:06.520Z,42.30
2019-04-30T17:13:41.081Z,38.05
2019-04-30T17:16:12.791Z,37.90
2019-04-30T17:18:42.916Z,40.10
2019-04-30T17:21:12.855Z,48.87
2019-04-30T17:23:42.875Z,53.38
2019-04-30T17:26:13.665Z,46.28
2019-04-30T17:28:44.824Z,38.95
2019-04-30T17:31:14.795Z,38.20
2019-04-30T17:33:44.787Z,40.33
2019-04-30T17:36:14.418Z,39.95
2019-04-30T17:38:44.575Z,43.60
2019-04-30T17:41:14.257Z,40.67
2019-04-30T17:43:44.105Z,49.13
2019-04-30T17:46:14.107Z,41.55
2019-04-30T17:48:43.786Z,43.25
2019-04-30T17:51:15.525Z,40.23
2019-04-30T17:54:03.331Z,43.58
2019-04-30T17:56:33.594Z,38.98
2019-04-30T17:59:03.537Z,39.60
2019-04-30T18:01:33.851Z,37.88
2019-04-30T18:04:04.030Z,38.17
2019-04-30T18:06:37.870Z,37.42
2019-04-30T18:09:11.032Z,39.48
2019-04-30T18:11:41.187Z,35.75
2019-04-30T18:14:11.321Z,36.85
2019-04-30T18:16:41.353Z,36.03
2019-04-30T18:19:15.853Z,37.33
2019-04-30T18:21:48.609Z,54.88
2019-04-30T18:24:36.529Z,38.83
2019-04-30T18:27:16.836Z,34.00
2019-04-30T18:29:46.834Z,51.18
2019-04-30T18:32:16.634Z,41.50
2019-04-30T18:34:46.531Z,40.33
2019-04-30T18:37:18.813Z,38.40
2019-04-30T18:39:48.954Z,83.15
2019-04-30T18:42:19.331Z,36.70
2019-04-30T18:44:49.215Z,38.90
2019-04-30T18:47:19.184Z,37.93
2019-04-30T18:49:49.584Z,35.25
2019-04-30T18:52:19.646Z,37.38
2019-04-30T18:54:49.659Z,40.85
2019-04-30T18:57:19.791Z,33.83
2019-04-30T18:59:49.747Z,40.43
2019-04-30T19:02:20.102Z,35.48
2019-04-30T19:04:50.046Z,36.50
2019-04-30T19:07:24.934Z,39.60
2019-04-30T19:09:58.796Z,35.13
2019-04-30T19:12:49.689Z,37.63
2019-04-30T19:16:11.423Z,46.77
2019-04-30T19:18:14.397Z,42.70
2019-04-30T19:20:46.067Z,46.30
2019-04-30T19:23:16.220Z,42.83
2019-04-30T19:25:46.324Z,44.73
2019-04-30T19:28:18.758Z,36.65
2019-04-30T19:30:55.827Z,41.18
2019-04-30T19:33:19.918Z,46.80
2019-04-30T19:35:50.606Z,45.85
2019-04-30T19:38:20.694Z,42.93
2019-04-30T19:40:50.778Z,37.67
2019-04-30T19:43:20.884Z,40.80
2019-04-30T19:45:51.216Z,38.35
2019-04-30T19:48:22.584Z,42.00
2019-04-30T19:50:52.606Z,42.23
2019-04-30T19:53:22.627Z,41.37
2019-04-30T19:55:52.636Z,38.67
2019-04-30T19:58:29.553Z,42.58
2019-04-30T20:00:53.880Z,41.98
2019-04-30T20:03:24.012Z,40.50
2019-04-30T20:05:53.995Z,40.33
2019-04-30T20:08:23.968Z,40.98
2019-04-30T20:10:53.920Z,44.90
2019-04-30T20:13:36.204Z,41.63
2019-04-30T20:15:55.877Z,42.48
2019-04-30T20:18:25.891Z,44.65
2019-04-30T20:21:00.882Z,39.90
2019-04-30T20:23:29.174Z,41.10
2019-04-30T20:25:59.158Z,35.35
2019-04-30T20:28:39.066Z,35.48
2019-04-30T20:31:02.048Z,38.48
2019-04-30T20:33:33.078Z,41.20
2019-04-30T20:36:03.142Z,41.53
2019-04-30T20:38:34.737Z,42.48
2019-04-30T20:41:06.625Z,40.55
2019-04-30T20:43:36.652Z,40.28
2019-04-30T20:46:08.608Z,40.88
2019-04-30T20:48:39.278Z,42.80
2019-04-30T20:51:10.471Z,41.05
2019-04-30T20:53:41.007Z,44.93
2019-04-30T20:56:11.211Z,44.67
2019-04-30T20:58:54.649Z,44.00
2019-04-30T21:01:12.914Z,43.95
2019-04-30T21:03:42.864Z,42.23
2019-04-30T21:06:12.534Z,43.63
2019-04-30T21:08:42.414Z,47.38
2019-04-30T21:11:12.364Z,46.53
2019-04-30T21:13:42.543Z,43.85
2019-04-30T21:16:12.550Z,41.10
2019-04-30T21:18:42.590Z,41.50
2019-04-30T21:21:12.547Z,46.30
2019-04-30T21:23:42.583Z,44.40
2019-04-30T21:26:12.191Z,44.48
2019-04-30T21:28:44.017Z,41.90
2019-04-30T21:31:31.876Z,41.73
2019-04-30T21:34:21.925Z,40.25
2019-04-30T21:36:51.975Z,38.28
2019-04-30T21:39:21.987Z,36.68
2019-04-30T21:41:52.184Z,38.58
2019-04-30T21:44:22.230Z,38.78
2019-04-30T21:46:52.248Z,36.08
2019-04-30T21:49:22.267Z,37.70
2019-04-30T21:51:52.350Z,37.10
2019-04-30T21:54:22.341Z,37.63
2019-04-30T21:56:51.963Z,44.42
2019-04-30T21:59:24.573Z,42.10
2019-04-30T22:01:53.292Z,40.67
2019-04-30T22:04:23.270Z,36.73
2019-04-30T22:06:53.282Z,37.28
2019-04-30T22:09:23.496Z,43.85
2019-04-30T22:11:53.715Z,38.53
2019-04-30T22:14:23.627Z,40.17
2019-04-30T22:16:53.628Z,40.75
2019-04-30T22:19:23.646Z,41.25
2019-04-30T22:21:53.768Z,38.63
2019-04-30T22:24:23.722Z,41.85
2019-04-30T22:26:53.750Z,38.02
2019-04-30T22:29:36.130Z,39.03
2019-04-30T22:31:55.490Z,39.70
2019-04-30T22:34:25.524Z,39.20
2019-04-30T22:36:55.475Z,39.85
2019-04-30T22:39:31.415Z,34.65
2019-04-30T22:42:04.449Z,36.48
2019-04-30T22:44:34.362Z,33.60
2019-04-30T22:47:04.334Z,32.17
2019-04-30T22:49:34.363Z,34.13
2019-04-30T22:52:04.307Z,38.65
2019-04-30T22:54:34.287Z,37.25
2019-04-30T22:57:07.240Z,34.65
2019-04-30T22:59:43.908Z,33.05
2019-04-30T23:02:26.716Z,34.38
2019-04-30T23:04:56.673Z,35.68
2019-04-30T23:07:26.703Z,30.80
2019-04-30T23:09:56.687Z,30.90
2019-04-30T23:12:26.896Z,28.70
2019-04-30T23:14:56.942Z,32.80
2019-04-30T23:17:26.903Z,33.53
2019-04-30T23:19:56.933Z,29.57
2019-04-30T23:22:26.904Z,31.45
2019-04-30T23:24:56.957Z,32.70
2019-04-30T23:27:26.887Z,31.02
2019-04-30T23:30:03.407Z,30.40
2019-04-30T23:32:28.588Z,31.33
2019-04-30T23:34:58.579Z,29.25
2019-04-30T23:37:28.513Z,28.57
2019-04-30T23:40:17.992Z,29.05
2019-04-30T23:42:47.940Z,28.00
2019-04-30T23:45:17.979Z,28.47
2019-04-30T23:47:48.001Z,27.17
2019-04-30T23:50:17.960Z,29.85
2019-04-30T23:52:47.885Z,28.73
2019-04-30T23:55:17.866Z,24.02
2019-04-30T23:57:47.977Z,27.85
